Terminal Aerodrome Forecast
Issued by NWS Sterling, VA

Current Version | Previous Version | Graphics & Text | Print | Product List | Glossary On
Versions: 1 2 3 4 5 6 7 8 9 10 11 12 13 14 15 16 17 18 19 20 21 22 23 24 25 26
000
FTUS41 KLWX 220533
TAFDCA
TAF
KDCA 220533Z 2206/2306 VRB03KT 1SM -DZ BR OVC005
     FM220900 07004KT 1SM -DZ BR BKN003 OVC005
     FM221500 06006KT 5SM -DZ BR BKN005 OVC008
     FM221800 06007KT 5SM -RADZ BKN008 OVC015
     FM222300 07010G18KT 5SM -RA BKN008 OVC015=

USA.gov is the U.S. government's official web portal to all federal, state and local government web resources and services.